Time;durP1;ratioP1;P1;durP2;ratioP2;P2;SDS_P1;SDS_P2;PMS_P1;PMS_P2;Temp;Humidity;BMP_temperature;BMP_pressure;BME280_temperature;BME280_humidity;BME280_pressure;Samples;Min_cycle;Max_cycle;Signal;HPM_P1;HPM_P2
2022/04/20 00:01:00;;;;;;;4.32;2.65;;;;;;;;;;2098162;28;20052;-45
2022/04/20 00:02:01;;;;;;;4.85;3.30;;;;;;;;;;2097954;28;20405;-45
2022/04/20 00:03:03;;;;;;;4.65;2.88;;;;;;;;;;2098010;28;20402;-45
2022/04/20 00:04:04;;;;;;;4.90;2.85;;;;;;;;;;2097973;28;20608;-45
2022/04/20 00:05:05;;;;;;;4.30;3.15;;;;;;;;;;2098163;28;20051;-45
2022/04/20 00:06:07;;;;;;;4.32;3.00;;;;;;;;;;2097950;28;20198;-45
2022/04/20 00:07:09;;;;;;;4.55;3.03;;;;;;;;;;2098166;28;20135;-45
2022/04/20 00:08:10;;;;;;;4.60;2.70;;;;;;;;;;2098079;28;20048;-45
2022/04/20 00:09:11;;;;;;;3.93;2.67;;;;;;;;;;2098011;28;20045;-45
2022/04/20 00:10:12;;;;;;;5.07;2.90;;;;;;;;;;2098048;28;20584;-45
2022/04/20 00:11:13;;;;;;;4.82;3.03;;;;;;;;;;2098022;28;20045;-44
2022/04/20 00:12:15;;;;;;;5.22;3.15;;;;;;;;;;2098053;28;20123;-45
2022/04/20 00:13:16;;;;;;;5.40;3.08;;;;;;;;;;2097868;28;20135;-45
2022/04/20 00:14:19;;;;;;;5.80;2.92;;;;;;;;;;2098190;28;20048;-45
2022/04/20 00:15:20;;;;;;;4.72;2.78;;;;;;;;;;2097950;28;20485;-45
2022/04/20 00:16:21;;;;;;;4.47;2.90;;;;;;;;;;2097966;28;20071;-45
2022/04/20 00:17:22;;;;;;;4.88;3.15;;;;;;;;;;2097968;28;20051;-45
2022/04/20 00:18:23;;;;;;;5.90;2.80;;;;;;;;;;2097070;28;20055;-45
2022/04/20 00:19:25;;;;;;;4.63;2.95;;;;;;;;;;2089689;28;20257;-44
2022/04/20 00:20:26;;;;;;;5.07;2.85;;;;;;;;;;2089665;28;20135;-45
2022/04/20 00:21:28;;;;;;;5.70;2.95;;;;;;;;;;2089635;28;20132;-45
2022/04/20 00:22:29;;;;;;;5.00;3.15;;;;;;;;;;2089495;28;20048;-45
2022/04/20 00:23:30;;;;;;;3.75;2.72;;;;;;;;;;2089632;28;20123;-45
2022/04/20 00:24:32;;;;;;;4.78;2.90;;;;;;;;;;2089046;28;20103;-45
2022/04/20 00:25:33;;;;;;;5.47;3.00;;;;;;;;;;2089714;28;20052;-45
2022/04/20 00:26:34;;;;;;;4.90;2.58;;;;;;;;;;2089631;28;20514;-45
2022/04/20 00:27:35;;;;;;;4.80;2.90;;;;;;;;;;2089756;28;20198;-44
2022/04/20 00:28:37;;;;;;;5.47;3.13;;;;;;;;;;2089431;28;20631;-45
2022/04/20 00:29:38;;;;;;;4.80;2.85;;;;;;;;;;2089723;28;20127;-45
2022/04/20 00:30:39;;;;;;;4.32;2.90;;;;;;;;;;2089643;28;20045;-45
2022/04/20 00:31:40;;;;;;;4.47;2.75;;;;;;;;;;2089555;28;20105;-45
2022/04/20 00:32:41;;;;;;;6.22;3.05;;;;;;;;;;2089634;28;20045;-45
2022/04/20 00:33:42;;;;;;;4.50;2.83;;;;;;;;;;2092328;28;20277;-45
2022/04/20 00:34:43;;;;;;;6.10;3.20;;;;;;;;;;2097825;28;20101;-45
2022/04/20 00:35:45;;;;;;;5.28;3.10;;;;;;;;;;2097812;28;20064;-45
2022/04/20 00:36:50;;;;;;;4.95;3.17;;;;;;;;;;2097810;28;20606;-45
2022/04/20 00:37:51;;;;;;;4.45;2.72;;;;;;;;;;2097830;28;20045;-45
2022/04/20 00:38:53;;;;;;;5.43;3.00;;;;;;;;;;2097726;28;20604;-45
2022/04/20 00:39:54;;;;;;;4.68;3.08;;;;;;;;;;2098027;28;20482;-61
2022/04/20 00:40:55;;;;;;;4.67;2.63;;;;;;;;;;2097755;28;20052;-61
2022/04/20 00:41:56;;;;;;;3.92;2.53;;;;;;;;;;2097796;28;20101;-61
2022/04/20 00:42:58;;;;;;;5.68;3.22;;;;;;;;;;2097926;28;20124;-61
2022/04/20 00:43:59;;;;;;;5.22;2.80;;;;;;;;;;2097665;28;20157;-61
2022/04/20 00:45:00;;;;;;;5.68;3.50;;;;;;;;;;2097953;28;20044;-61
2022/04/20 00:46:03;;;;;;;4.40;2.58;;;;;;;;;;2097742;28;20485;-61
2022/04/20 00:47:05;;;;;;;5.47;3.38;;;;;;;;;;2097664;28;20045;-61
2022/04/20 00:48:07;;;;;;;5.63;3.40;;;;;;;;;;2097841;28;20420;-61
2022/04/20 00:49:09;;;;;;;5.22;2.97;;;;;;;;;;2097621;28;20095;-60
2022/04/20 00:50:15;;;;;;;7.82;4.10;;;;;;;;;;2097725;28;20417;-61
2022/04/20 00:51:16;;;;;;;5.70;3.20;;;;;;;;;;2097688;28;20059;-61
2022/04/20 00:52:18;;;;;;;5.15;3.03;;;;;;;;;;2097837;28;20139;-61
2022/04/20 00:53:19;;;;;;;4.72;3.10;;;;;;;;;;2097773;28;20049;-61
2022/04/20 00:54:20;;;;;;;5.53;3.28;;;;;;;;;;2097800;28;20123;-61
2022/04/20 00:55:21;;;;;;;5.25;3.10;;;;;;;;;;2097687;28;20568;-61
2022/04/20 00:56:22;;;;;;;5.88;3.50;;;;;;;;;;2097846;28;20120;-61
2022/04/20 00:57:23;;;;;;;5.93;3.10;;;;;;;;;;2097818;28;20041;-61
2022/04/20 00:58:24;;;;;;;6.95;3.67;;;;;;;;;;2097636;28;20588;-61
2022/04/20 00:59:26;;;;;;;6.55;3.95;;;;;;;;;;2097683;28;20174;-61
2022/04/20 01:00:29;;;;;;;4.55;2.75;;;;;;;;;;2097628;28;20552;-61
2022/04/20 01:01:30;;;;;;;6.45;3.80;;;;;;;;;;2097747;28;20044;-61
2022/04/20 01:02:31;;;;;;;5.82;3.25;;;;;;;;;;2097672;28;20267;-61
2022/04/20 01:03:33;;;;;;;4.75;3.17;;;;;;;;;;2097746;28;20075;-61
2022/04/20 01:04:34;;;;;;;5.60;3.47;;;;;;;;;;2097672;28;20074;-61
2022/04/20 01:05:35;;;;;;;6.43;3.80;;;;;;;;;;2097725;28;20501;-61
2022/04/20 01:06:36;;;;;;;6.45;4.45;;;;;;;;;;2097636;28;20576;-61
2022/04/20 01:07:40;;;;;;;6.70;3.80;;;;;;;;;;2097738;28;20167;-61
2022/04/20 01:08:41;;;;;;;5.32;3.50;;;;;;;;;;2097687;28;20131;-61
2022/04/20 01:09:42;;;;;;;5.07;3.45;;;;;;;;;;2097666;28;20127;-61
2022/04/20 01:10:43;;;;;;;5.32;3.30;;;;;;;;;;2097613;28;20114;-61
2022/04/20 01:11:45;;;;;;;5.57;3.60;;;;;;;;;;2097608;28;20474;-61
2022/04/20 01:12:46;;;;;;;7.95;4.03;;;;;;;;;;2097594;28;20459;-61
2022/04/20 01:13:47;;;;;;;7.03;4.43;;;;;;;;;;2097470;28;20139;-60
2022/04/20 01:14:48;;;;;;;7.20;3.80;;;;;;;;;;2097703;28;20133;-61
2022/04/20 01:15:49;;;;;;;5.55;3.53;;;;;;;;;;2097638;28;20091;-61
2022/04/20 01:16:51;;;;;;;6.30;3.00;;;;;;;;;;2097707;28;20048;-61
2022/04/20 01:17:51;;;;;;;5.78;3.50;;;;;;;;;;2097617;28;20310;-61
2022/04/20 01:18:53;;;;;;;5.60;3.53;;;;;;;;;;2092648;28;20041;-61
2022/04/20 01:19:54;;;;;;;6.95;3.92;;;;;;;;;;2089285;28;20136;-61
2022/04/20 01:20:56;;;;;;;6.43;3.83;;;;;;;;;;2089309;28;20130;-61
2022/04/20 01:21:56;;;;;;;5.13;3.05;;;;;;;;;;2089321;28;20571;-61
2022/04/20 01:22:58;;;;;;;5.13;3.13;;;;;;;;;;2089302;28;20041;-61
2022/04/20 01:23:59;;;;;;;6.30;3.55;;;;;;;;;;2089154;28;20524;-61
2022/04/20 01:25:00;;;;;;;6.95;3.72;;;;;;;;;;2089295;28;20049;-61
2022/04/20 01:26:01;;;;;;;5.28;3.08;;;;;;;;;;2089210;28;20140;-61
2022/04/20 01:27:02;;;;;;;6.13;3.38;;;;;;;;;;2089372;28;20052;-61
2022/04/20 01:28:04;;;;;;;6.18;3.78;;;;;;;;;;2089386;28;20120;-61
2022/04/20 01:29:06;;;;;;;10.25;4.28;;;;;;;;;;2089192;28;20049;-61
2022/04/20 01:30:08;;;;;;;5.80;3.50;;;;;;;;;;2093607;28;20190;-61
2022/04/20 01:31:12;;;;;;;7.35;3.47;;;;;;;;;;2097485;28;20493;-61
2022/04/20 01:32:13;;;;;;;5.80;3.70;;;;;;;;;;2097421;28;20045;-61
2022/04/20 01:33:14;;;;;;;6.22;3.72;;;;;;;;;;2097480;28;20045;-61
2022/04/20 01:34:15;;;;;;;6.10;3.67;;;;;;;;;;2097396;28;20170;-61
2022/04/20 01:35:16;;;;;;;5.80;3.47;;;;;;;;;;2097742;28;20076;-45
2022/04/20 01:36:18;;;;;;;7.28;3.58;;;;;;;;;;2096395;28;20049;-45
2022/04/20 01:37:19;;;;;;;;;;;;;;;;;;2098030;28;20127;-45
2022/04/20 01:38:20;;;;;;;6.55;4.03;;;;;;;;;;2097323;28;19921;-45
2022/04/20 01:39:21;;;;;;;6.05;3.85;;;;;;;;;;2097334;28;20123;-45
2022/04/20 01:40:22;;;;;;;6.10;3.58;;;;;;;;;;2097504;28;20128;-45
2022/04/20 01:41:23;;;;;;;6.63;3.55;;;;;;;;;;2097353;28;20401;-45
2022/04/20 01:42:25;;;;;;;5.68;3.47;;;;;;;;;;2097491;28;20045;-44
2022/04/20 01:43:26;;;;;;;4.47;3.42;;;;;;;;;;2097432;28;20124;-45
2022/04/20 01:44:27;;;;;;;7.17;4.20;;;;;;;;;;2097365;28;20394;-45
2022/04/20 01:45:28;;;;;;;5.70;3.78;;;;;;;;;;2097326;28;20119;-44
2022/04/20 01:46:29;;;;;;;6.05;3.35;;;;;;;;;;2097563;28;20041;-44
2022/04/20 01:47:30;;;;;;;7.43;4.28;;;;;;;;;;2097441;28;20051;-45
2022/04/20 01:48:31;;;;;;;5.40;3.70;;;;;;;;;;2097350;28;20044;-45
2022/04/20 01:49:32;;;;;;;5.68;3.35;;;;;;;;;;2097311;28;20639;-45
2022/04/20 01:50:33;;;;;;;8.52;3.72;;;;;;;;;;2097454;28;20098;-45
2022/04/20 01:51:47;;;;;;;5.30;3.40;;;;;;;;;;2097525;28;20132;-45
2022/04/20 01:52:48;;;;;;;6.13;3.78;;;;;;;;;;2097444;28;20127;-45
2022/04/20 01:53:49;;;;;;;7.57;4.03;;;;;;;;;;2097302;28;20052;-45
2022/04/20 01:54:51;;;;;;;6.53;3.23;;;;;;;;;;2097290;28;20126;-45
2022/04/20 01:55:52;;;;;;;5.45;3.67;;;;;;;;;;2097446;28;20127;-45
2022/04/20 01:56:53;;;;;;;5.32;3.47;;;;;;;;;;2097327;28;20496;-44
2022/04/20 01:57:54;;;;;;;6.15;4.40;;;;;;;;;;2097445;28;20072;-45
2022/04/20 01:58:55;;;;;;;5.47;3.20;;;;;;;;;;2097235;28;20522;-45
2022/04/20 01:59:56;;;;;;;7.97;3.97;;;;;;;;;;2097429;28;20075;-45
2022/04/20 02:00:57;;;;;;;7.18;3.45;;;;;;;;;;2097320;28;20106;-45
2022/04/20 02:03:14;;;;;;;6.85;3.60;;;;;;;;;;2088406;28;20126;-45
2022/04/20 02:04:15;;;;;;;5.00;3.60;;;;;;;;;;2097282;28;20559;-44
2022/04/20 02:05:16;;;;;;;6.40;3.67;;;;;;;;;;2097240;28;20576;-45
2022/04/20 02:06:17;;;;;;;6.67;3.70;;;;;;;;;;2097629;28;20037;-45
2022/04/20 02:07:19;;;;;;;6.35;3.72;;;;;;;;;;2097377;28;20128;-45
2022/04/20 02:08:20;;;;;;;6.18;3.50;;;;;;;;;;2097235;28;20126;-45
2022/04/20 02:09:21;;;;;;;4.25;2.75;;;;;;;;;;2097314;28;20174;-45
2022/04/20 02:10:22;;;;;;;7.45;3.78;;;;;;;;;;2097298;28;20131;-45
2022/04/20 02:11:23;;;;;;;6.40;3.60;;;;;;;;;;2097323;28;20131;-45
2022/04/20 02:12:24;;;;;;;4.95;3.20;;;;;;;;;;2097178;28;20599;-44
2022/04/20 02:13:26;;;;;;;9.15;4.38;;;;;;;;;;2097366;28;20132;-45
2022/04/20 02:14:27;;;;;;;6.25;3.88;;;;;;;;;;2097256;28;20123;-43
2022/04/20 02:15:28;;;;;;;7.00;4.07;;;;;;;;;;2097317;28;20048;-45
2022/04/20 02:16:29;;;;;;;7.80;4.40;;;;;;;;;;2097191;28;20504;-45
2022/04/20 02:17:34;;;;;;;6.25;3.28;;;;;;;;;;2097388;28;20047;-45
2022/04/20 02:18:35;;;;;;;6.20;3.83;;;;;;;;;;2094787;28;20114;-43
2022/04/20 02:19:36;;;;;;;6.32;3.83;;;;;;;;;;2088942;28;20091;-45
2022/04/20 02:20:37;;;;;;;6.40;3.95;;;;;;;;;;2089036;28;20179;-45
2022/04/20 02:21:38;;;;;;;5.63;3.70;;;;;;;;;;2088910;28;20539;-44
2022/04/20 02:22:40;;;;;;;5.97;3.47;;;;;;;;;;2088943;28;20049;-45
2022/04/20 02:23:41;;;;;;;6.38;3.42;;;;;;;;;;2088944;28;20157;-45
2022/04/20 02:24:42;;;;;;;6.85;3.28;;;;;;;;;;2088874;28;20084;-45
2022/04/20 02:25:43;;;;;;;5.80;3.13;;;;;;;;;;2089128;28;20140;-45
2022/04/20 02:26:44;;;;;;;6.13;3.17;;;;;;;;;;2096325;28;20052;-45
2022/04/20 02:27:45;;;;;;;6.30;3.50;;;;;;;;;;2097263;28;20128;-45
2022/04/20 02:28:46;;;;;;;6.50;3.40;;;;;;;;;;2097292;28;20112;-46
2022/04/20 02:29:48;;;;;;;5.35;3.47;;;;;;;;;;2097215;28;20070;-45
2022/04/20 02:30:49;;;;;;;5.35;3.17;;;;;;;;;;2097044;28;20067;-45
2022/04/20 02:31:50;;;;;;;4.27;2.80;;;;;;;;;;2097248;28;20049;-45
2022/04/20 02:32:51;;;;;;;5.03;3.17;;;;;;;;;;2097173;28;20049;-45
2022/04/20 02:33:52;;;;;;;4.17;2.77;;;;;;;;;;2097224;28;20059;-45
2022/04/20 02:34:53;;;;;;;4.65;3.15;;;;;;;;;;2097080;28;20053;-45
2022/04/20 02:35:54;;;;;;;5.68;3.00;;;;;;;;;;2097443;28;20131;-60
2022/04/20 02:36:56;;;;;;;6.20;3.60;;;;;;;;;;2097167;28;20120;-60
2022/04/20 02:37:59;;;;;;;4.03;2.35;;;;;;;;;;2097288;28;20390;-60
2022/04/20 02:39:03;;;;;;;5.28;2.75;;;;;;;;;;2097079;28;20080;-60
2022/04/20 02:40:05;;;;;;;4.95;2.78;;;;;;;;;;2097171;28;20070;-60
2022/04/20 02:41:06;;;;;;;4.13;2.70;;;;;;;;;;2097203;28;20201;-59
2022/04/20 02:42:08;;;;;;;4.75;2.97;;;;;;;;;;2097060;28;20131;-60
2022/04/20 02:43:08;;;;;;;4.70;2.70;;;;;;;;;;2097105;28;20483;-60
2022/04/20 02:44:10;;;;;;;3.88;2.58;;;;;;;;;;2096987;28;20127;-60
2022/04/20 02:45:11;;;;;;;3.80;2.85;;;;;;;;;;2097064;28;20153;-60
2022/04/20 02:46:12;;;;;;;6.20;3.08;;;;;;;;;;2097102;28;20139;-60
2022/04/20 02:47:16;;;;;;;4.72;2.70;;;;;;;;;;2097194;28;20082;-60
2022/04/20 02:48:17;;;;;;;4.90;3.05;;;;;;;;;;2098470;28;20497;-60
2022/04/20 02:49:18;;;;;;;4.45;2.60;;;;;;;;;;2098583;28;20105;-60
2022/04/20 02:50:19;;;;;;;6.28;2.92;;;;;;;;;;2098680;28;20578;-45
2022/04/20 02:51:20;;;;;;;5.18;2.80;;;;;;;;;;2098650;28;20044;-45
2022/04/20 02:52:22;;;;;;;4.68;2.65;;;;;;;;;;2098503;28;20048;-45
2022/04/20 02:53:23;;;;;;;5.13;2.83;;;;;;;;;;2098456;28;20139;-45
2022/04/20 02:54:25;;;;;;;6.22;2.53;;;;;;;;;;2098381;28;20455;-44
2022/04/20 02:55:25;;;;;;;5.63;2.85;;;;;;;;;;2098488;28;20127;-45
2022/04/20 02:56:27;;;;;;;4.53;2.77;;;;;;;;;;2098571;28;20501;-45
2022/04/20 02:57:28;;;;;;;2.83;2.30;;;;;;;;;;2098442;28;20414;-44
2022/04/20 02:58:29;;;;;;;4.97;2.95;;;;;;;;;;2098512;28;20127;-44
2022/04/20 02:59:30;;;;;;;4.30;2.55;;;;;;;;;;2098470;28;20131;-45
2022/04/20 03:00:32;;;;;;;3.07;2.00;;;;;;;;;;2098385;28;20045;-45
2022/04/20 03:01:33;;;;;;;3.22;2.20;;;;;;;;;;2098486;28;20133;-44
2022/04/20 03:02:34;;;;;;;3.20;2.30;;;;;;;;;;2098415;28;20047;-45
2022/04/20 03:03:35;;;;;;;3.95;2.75;;;;;;;;;;2098401;28;20048;-43
2022/04/20 03:04:36;;;;;;;4.38;2.72;;;;;;;;;;2098419;28;20107;-44
2022/04/20 03:05:37;;;;;;;4.18;2.78;;;;;;;;;;2098358;28;20443;-45
2022/04/20 03:06:39;;;;;;;4.53;3.03;;;;;;;;;;2098469;28;20045;-43
2022/04/20 03:07:39;;;;;;;4.65;3.10;;;;;;;;;;2098461;28;20056;-44
2022/04/20 03:08:41;;;;;;;3.53;2.25;;;;;;;;;;2098333;28;20048;-44
2022/04/20 03:09:42;;;;;;;;;;;;;;;;;;2098969;28;20173;-44
2022/04/20 03:10:44;;;;;;;5.40;2.67;;;;;;;;;;2098488;28;19936;-59
2022/04/20 03:11:45;;;;;;;4.82;2.67;;;;;;;;;;2098412;28;20584;-59
2022/04/20 03:12:46;;;;;;;3.40;2.60;;;;;;;;;;2098486;28;20052;-60
2022/04/20 03:13:47;;;;;;;3.35;2.30;;;;;;;;;;2098374;28;20094;-59
2022/04/20 03:14:48;;;;;;;5.78;2.42;;;;;;;;;;2098541;28;20270;-60
2022/04/20 03:15:49;;;;;;;3.85;2.40;;;;;;;;;;2098333;28;20094;-60
2022/04/20 03:16:51;;;;;;;4.10;2.30;;;;;;;;;;2098424;28;20128;-60
2022/04/20 03:17:52;;;;;;;2.95;2.30;;;;;;;;;;2098344;28;20054;-60
2022/04/20 03:18:53;;;;;;;4.07;2.72;;;;;;;;;;2093562;28;20492;-60
2022/04/20 03:19:54;;;;;;;6.47;2.85;;;;;;;;;;2090122;28;20127;-60
2022/04/20 03:20:55;;;;;;;5.65;2.75;;;;;;;;;;2090052;28;20550;-60
2022/04/20 03:21:56;;;;;;;4.55;2.65;;;;;;;;;;2090151;28;20269;-60
2022/04/20 03:22:57;;;;;;;5.55;2.75;;;;;;;;;;2097042;28;20060;-60
2022/04/20 03:23:59;;;;;;;4.18;2.80;;;;;;;;;;2098479;28;20108;-45
2022/04/20 03:25:00;;;;;;;4.22;2.58;;;;;;;;;;2098427;28;20048;-45
2022/04/20 03:26:01;;;;;;;6.50;3.05;;;;;;;;;;2098377;28;20132;-45
2022/04/20 03:27:02;;;;;;;3.53;2.50;;;;;;;;;;2098315;28;20064;-45
2022/04/20 03:28:03;;;;;;;4.55;2.65;;;;;;;;;;2098320;28;20659;-44
2022/04/20 03:29:04;;;;;;;5.55;3.13;;;;;;;;;;2098153;28;20131;-45
2022/04/20 03:30:06;;;;;;;4.45;2.50;;;;;;;;;;2098443;28;20055;-45
2022/04/20 03:31:07;;;;;;;4.72;3.03;;;;;;;;;;2098300;28;20055;-45
2022/04/20 03:32:09;;;;;;;5.88;3.08;;;;;;;;;;2098298;28;20500;-43
2022/04/20 03:33:10;;;;;;;5.03;3.00;;;;;;;;;;2098243;28;20045;-43
2022/04/20 03:34:12;;;;;;;4.13;2.60;;;;;;;;;;2098220;28;20193;-43
2022/04/20 03:35:14;;;;;;;4.47;2.60;;;;;;;;;;2098368;28;20447;-60
2022/04/20 03:36:15;;;;;;;5.57;3.17;;;;;;;;;;2098511;28;20127;-60
2022/04/20 03:37:16;;;;;;;5.60;3.08;;;;;;;;;;2098229;28;20583;-60
2022/04/20 03:38:17;;;;;;;6.15;3.78;;;;;;;;;;2098085;28;20064;-59
2022/04/20 03:39:19;;;;;;;7.25;3.13;;;;;;;;;;2098188;28;20051;-58
2022/04/20 03:40:20;;;;;;;4.10;2.70;;;;;;;;;;2098139;28;20132;-60
2022/04/20 03:41:22;;;;;;;4.95;3.33;;;;;;;;;;2098308;28;20059;-60
2022/04/20 03:42:23;;;;;;;4.18;2.60;;;;;;;;;;2098081;28;20470;-59
2022/04/20 03:43:24;;;;;;;4.55;2.85;;;;;;;;;;2098346;28;20127;-60
2022/04/20 03:44:26;;;;;;;5.10;2.50;;;;;;;;;;2098197;28;20079;-60
2022/04/20 03:45:27;;;;;;;4.70;2.70;;;;;;;;;;2098294;28;20136;-60
2022/04/20 03:46:28;;;;;;;4.80;3.03;;;;;;;;;;2098188;28;20083;-60
2022/04/20 03:47:29;;;;;;;3.72;2.55;;;;;;;;;;2098265;28;20041;-60
2022/04/20 03:48:31;;;;;;;3.72;2.55;;;;;;;;;;2098133;28;20045;-60
2022/04/20 03:49:31;;;;;;;4.80;2.90;;;;;;;;;;2098099;28;20127;-60
2022/04/20 03:50:33;;;;;;;4.45;2.50;;;;;;;;;;2098148;28;20406;-60
2022/04/20 03:51:34;;;;;;;5.05;3.10;;;;;;;;;;2098182;28;20141;-60
2022/04/20 03:52:36;;;;;;;5.55;3.28;;;;;;;;;;2098127;28;20050;-60
2022/04/20 03:53:37;;;;;;;2.83;2.05;;;;;;;;;;2098089;28;20052;-60
2022/04/20 03:54:39;;;;;;;5.22;2.70;;;;;;;;;;2098085;28;20561;-60
2022/04/20 03:55:40;;;;;;;4.80;2.63;;;;;;;;;;2098114;28;20055;-60
2022/04/20 03:58:01;;;;;;;5.65;2.95;;;;;;;;;;2098174;28;20136;-60
2022/04/20 03:59:02;;;;;;;5.75;3.17;;;;;;;;;;2097529;28;20131;-60
2022/04/20 04:00:04;;;;;;;6.23;2.87;;;;;;;;;;2097904;28;20052;-60
2022/04/20 04:01:05;;;;;;;4.28;2.83;;;;;;;;;;2098149;28;20041;-61
2022/04/20 04:02:06;;;;;;;3.28;2.35;;;;;;;;;;2098070;28;20083;-60
2022/04/20 04:03:07;;;;;;;3.70;2.70;;;;;;;;;;2097989;28;20130;-60
2022/04/20 04:04:08;;;;;;;4.23;2.63;;;;;;;;;;2098355;28;20185;-45
2022/04/20 04:05:09;;;;;;;3.75;2.38;;;;;;;;;;2098197;28;20048;-45
2022/04/20 04:06:11;;;;;;;3.97;2.60;;;;;;;;;;2098160;28;20121;-45
2022/04/20 04:07:11;;;;;;;4.75;2.70;;;;;;;;;;2098147;28;20079;-45
2022/04/20 04:08:13;;;;;;;3.80;2.20;;;;;;;;;;2098157;28;20048;-43
2022/04/20 04:09:14;;;;;;;3.95;2.90;;;;;;;;;;2098079;28;20131;-45
2022/04/20 04:10:15;;;;;;;4.17;2.57;;;;;;;;;;2098024;28;20051;-44
2022/04/20 04:11:16;;;;;;;4.55;2.80;;;;;;;;;;2098052;28;20139;-45
2022/04/20 04:12:21;;;;;;;4.85;3.15;;;;;;;;;;2098116;28;20139;-45
2022/04/20 04:13:22;;;;;;;5.28;2.60;;;;;;;;;;2098163;28;20176;-45
2022/04/20 04:14:23;;;;;;;4.43;2.40;;;;;;;;;;2097870;28;20521;-45
2022/04/20 04:15:24;;;;;;;6.43;3.00;;;;;;;;;;2098134;28;20044;-45
2022/04/20 04:16:25;;;;;;;4.57;2.85;;;;;;;;;;2098005;28;20051;-45
2022/04/20 04:17:26;;;;;;;4.37;2.60;;;;;;;;;;2098143;28;20090;-45
2022/04/20 04:18:27;;;;;;;4.95;2.92;;;;;;;;;;2097084;28;20715;-45
2022/04/20 04:19:29;;;;;;;4.20;2.70;;;;;;;;;;2098111;28;20044;-45
2022/04/20 04:20:30;;;;;;;4.30;2.70;;;;;;;;;;2097707;28;20135;-44
2022/04/20 04:21:33;;;;;;;5.75;3.22;;;;;;;;;;2097939;28;20135;-43
2022/04/20 04:22:35;;;;;;;4.97;2.88;;;;;;;;;;2098178;28;20108;-45
2022/04/20 04:23:36;;;;;;;4.97;2.90;;;;;;;;;;2097955;28;20040;-45
2022/04/20 04:24:37;;;;;;;3.75;2.60;;;;;;;;;;2097905;28;20052;-45
2022/04/20 04:25:39;;;;;;;4.88;2.88;;;;;;;;;;2097864;28;20479;-45
2022/04/20 04:26:40;;;;;;;4.35;2.83;;;;;;;;;;2097942;28;20480;-45
2022/04/20 04:27:41;;;;;;;4.18;3.00;;;;;;;;;;2097900;28;20128;-44
2022/04/20 04:28:42;;;;;;;4.68;2.72;;;;;;;;;;2097970;28;20131;-45
2022/04/20 04:29:43;;;;;;;3.90;2.78;;;;;;;;;;2097895;28;20056;-45
2022/04/20 04:30:45;;;;;;;5.03;3.00;;;;;;;;;;2097997;28;20051;-45
2022/04/20 04:31:46;;;;;;;4.57;2.60;;;;;;;;;;2097838;28;20143;-45
2022/04/20 04:32:48;;;;;;;5.07;3.03;;;;;;;;;;2097955;28;20041;-45
2022/04/20 04:33:49;;;;;;;6.13;3.08;;;;;;;;;;2098012;28;20048;-45
2022/04/20 04:34:50;;;;;;;5.40;3.08;;;;;;;;;;2097791;28;20062;-45
2022/04/20 04:35:51;;;;;;;4.28;3.08;;;;;;;;;;2097910;28;20113;-44
2022/04/20 04:36:54;;;;;;;5.90;2.72;;;;;;;;;;2097930;28;20456;-45
2022/04/20 04:37:55;;;;;;;5.70;3.28;;;;;;;;;;2097866;28;20132;-45
2022/04/20 04:38:56;;;;;;;4.47;2.80;;;;;;;;;;2097764;28;20135;-45
2022/04/20 04:39:57;;;;;;;5.82;2.95;;;;;;;;;;2097810;28;20055;-45
2022/04/20 04:40:59;;;;;;;4.65;2.78;;;;;;;;;;2097818;28;20131;-45
2022/04/20 04:42:01;;;;;;;5.45;2.50;;;;;;;;;;2097842;28;20049;-45
2022/04/20 04:43:02;;;;;;;4.05;2.28;;;;;;;;;;2097640;28;20530;-45
2022/04/20 04:44:03;;;;;;;4.40;2.53;;;;;;;;;;2097755;28;20045;-45
2022/04/20 04:49:03;;;;;;;5.65;3.33;;;;;;;;;;2097806;28;20044;-45
2022/04/20 04:50:04;;;;;;;4.95;2.85;;;;;;;;;;2097801;28;20127;-45
2022/04/20 04:51:06;;;;;;;3.95;2.60;;;;;;;;;;2097877;28;20048;-45
2022/04/20 04:52:11;;;;;;;4.75;2.90;;;;;;;;;;2097830;28;20131;-44
2022/04/20 04:53:12;;;;;;;5.28;2.80;;;;;;;;;;2097813;28;20044;-45
2022/04/20 04:54:13;;;;;;;4.53;3.00;;;;;;;;;;2097852;28;20055;-60
2022/04/20 04:55:14;;;;;;;4.40;2.28;;;;;;;;;;2098010;28;20157;-60
2022/04/20 04:56:16;;;;;;;4.37;2.80;;;;;;;;;;2097764;28;20477;-64
2022/04/20 04:57:16;;;;;;;5.38;2.83;;;;;;;;;;2097795;28;20127;-61
2022/04/20 04:58:18;;;;;;;3.75;2.53;;;;;;;;;;2097857;28;20564;-60
2022/04/20 04:59:19;;;;;;;5.00;2.50;;;;;;;;;;2097531;28;20068;-60
2022/04/20 05:00:20;;;;;;;5.00;2.72;;;;;;;;;;2097826;28;20045;-61
2022/04/20 05:01:21;;;;;;;4.53;2.88;;;;;;;;;;2097636;28;20115;-61
2022/04/20 05:02:22;;;;;;;5.97;3.50;;;;;;;;;;2097623;28;20398;-61
2022/04/20 05:03:23;;;;;;;4.85;2.55;;;;;;;;;;2097619;28;20305;-59
2022/04/20 05:04:24;;;;;;;4.93;3.33;;;;;;;;;;2097698;28;20072;-61
2022/04/20 05:05:26;;;;;;;5.10;3.05;;;;;;;;;;2097750;28;20556;-60
2022/04/20 05:06:26;;;;;;;5.63;3.10;;;;;;;;;;2097632;28;20630;-60
2022/04/20 05:07:28;;;;;;;5.27;2.87;;;;;;;;;;2097980;28;20044;-61
2022/04/20 05:08:29;;;;;;;4.28;2.72;;;;;;;;;;2097748;28;20452;-45
2022/04/20 05:09:30;;;;;;;5.63;2.95;;;;;;;;;;2097911;28;20076;-45
2022/04/20 05:10:31;;;;;;;4.68;2.28;;;;;;;;;;2097400;28;20178;-45
2022/04/20 05:11:33;;;;;;;5.43;3.17;;;;;;;;;;2097751;28;20079;-45
2022/04/20 05:12:34;;;;;;;5.35;2.88;;;;;;;;;;2097748;28;20091;-44
2022/04/20 05:13:35;;;;;;;5.65;3.22;;;;;;;;;;2097792;28;20123;-45
2022/04/20 05:14:37;;;;;;;7.28;3.80;;;;;;;;;;2097585;28;20364;-43
2022/04/20 05:15:38;;;;;;;5.97;3.53;;;;;;;;;;2097376;28;20253;-45
2022/04/20 05:16:39;;;;;;;5.93;3.35;;;;;;;;;;2097526;28;20106;-45
2022/04/20 05:17:40;;;;;;;4.83;3.03;;;;;;;;;;2097940;28;20071;-60
2022/04/20 05:18:41;;;;;;;5.10;3.33;;;;;;;;;;2094511;28;20041;-45
2022/04/20 05:19:42;;;;;;;6.47;3.40;;;;;;;;;;2089283;28;20111;-45
2022/04/20 05:20:44;;;;;;;4.25;2.50;;;;;;;;;;2089230;28;20148;-45
2022/04/20 05:21:45;;;;;;;7.88;3.35;;;;;;;;;;2089240;28;20572;-45
2022/04/20 05:22:46;;;;;;;4.80;3.00;;;;;;;;;;2089188;28;20496;-45
2022/04/20 05:23:47;;;;;;;5.72;3.75;;;;;;;;;;2089163;28;20156;-46
2022/04/20 05:24:48;;;;;;;6.10;3.53;;;;;;;;;;2089346;28;20044;-44
2022/04/20 05:25:49;;;;;;;4.60;2.80;;;;;;;;;;2089121;28;20466;-45
2022/04/20 05:26:52;;;;;;;5.83;3.27;;;;;;;;;;2089315;28;20052;-45
2022/04/20 05:27:53;;;;;;;5.32;3.13;;;;;;;;;;2089151;28;20057;-45
2022/04/20 05:28:54;;;;;;;7.17;3.70;;;;;;;;;;2089252;28;20079;-45
2022/04/20 05:29:55;;;;;;;5.30;3.30;;;;;;;;;;2089336;28;20059;-45
2022/04/20 05:30:56;;;;;;;5.33;3.13;;;;;;;;;;2089213;28;20048;-45
2022/04/20 05:31:59;;;;;;;5.57;3.20;;;;;;;;;;2089431;28;20301;-45
2022/04/20 05:33:00;;;;;;;5.30;3.00;;;;;;;;;;2089288;28;20045;-45
2022/04/20 05:34:02;;;;;;;6.32;3.72;;;;;;;;;;2089253;28;20053;-45
2022/04/20 05:35:04;;;;;;;5.97;3.30;;;;;;;;;;2089331;28;20429;-60
2022/04/20 05:36:05;;;;;;;4.45;2.90;;;;;;;;;;2089270;28;20474;-61
2022/04/20 05:42:24;;;;;;;5.53;3.40;;;;;;;;;;2089339;28;20478;-61
2022/04/20 05:43:25;;;;;;;;;;;;;;;;;;2089605;28;20049;-60
2022/04/20 05:44:26;;;;;;;5.78;3.20;;;;;;;;;;2088976;28;20425;-60
2022/04/20 05:45:27;;;;;;;4.72;2.88;;;;;;;;;;2089194;28;20128;-60
2022/04/20 05:46:28;;;;;;;6.85;3.50;;;;;;;;;;2089088;28;20482;-61
2022/04/20 05:47:29;;;;;;;6.50;3.20;;;;;;;;;;2089206;28;20045;-61
2022/04/20 05:48:30;;;;;;;5.35;2.97;;;;;;;;;;2088925;28;20048;-60
2022/04/20 05:49:31;;;;;;;6.65;3.63;;;;;;;;;;2089192;28;20183;-60
2022/04/20 05:50:33;;;;;;;8.73;4.53;;;;;;;;;;2089111;28;20064;-61
2022/04/20 05:51:33;;;;;;;4.82;2.95;;;;;;;;;;2089189;28;20131;-61
2022/04/20 05:52:35;;;;;;;5.50;3.17;;;;;;;;;;2089165;28;20049;-61
2022/04/20 05:53:36;;;;;;;5.82;3.60;;;;;;;;;;2088990;28;20474;-61
2022/04/20 05:54:37;;;;;;;6.35;3.45;;;;;;;;;;2089128;28;20049;-60
2022/04/20 05:55:38;;;;;;;5.50;3.35;;;;;;;;;;2089049;28;20133;-61
2022/04/20 05:56:39;;;;;;;4.68;3.05;;;;;;;;;;2089242;28;20134;-60
2022/04/20 05:57:41;;;;;;;5.57;3.00;;;;;;;;;;2089100;28;20124;-61
2022/04/20 05:58:44;;;;;;;4.03;2.72;;;;;;;;;;2089080;28;20132;-61
2022/04/20 05:59:46;;;;;;;6.15;3.08;;;;;;;;;;2088935;28;20565;-61
2022/04/20 06:00:47;;;;;;;;;;;;;;;;;;2089464;28;20283;-61
2022/04/20 06:01:48;;;;;;;4.65;2.90;;;;;;;;;;2089031;28;19928;-61
2022/04/20 06:02:49;;;;;;;6.22;3.60;;;;;;;;;;2088932;28;20048;-61
2022/04/20 06:03:50;;;;;;;6.20;2.88;;;;;;;;;;2089258;28;20052;-45
2022/04/20 06:04:52;;;;;;;5.28;3.30;;;;;;;;;;2089115;28;20053;-45
2022/04/20 06:05:53;;;;;;;5.25;3.30;;;;;;;;;;2089097;28;20049;-45
2022/04/20 06:06:54;;;;;;;6.82;4.03;;;;;;;;;;2088996;28;20124;-45
2022/04/20 06:07:55;;;;;;;6.65;3.20;;;;;;;;;;2089190;28;20079;-45
2022/04/20 06:08:56;;;;;;;5.25;3.15;;;;;;;;;;2089271;28;20394;-45
2022/04/20 06:09:57;;;;;;;5.78;3.10;;;;;;;;;;2089127;28;20183;-45
2022/04/20 06:10:58;;;;;;;6.80;3.40;;;;;;;;;;2089859;28;20460;-45
2022/04/20 06:11:59;;;;;;;6.60;3.25;;;;;;;;;;2097374;28;20406;-45
2022/04/20 06:13:01;;;;;;;6.10;3.60;;;;;;;;;;2097493;28;20123;-45
2022/04/20 06:14:02;;;;;;;4.53;2.97;;;;;;;;;;2097480;28;20372;-61
2022/04/20 06:15:05;;;;;;;5.25;3.47;;;;;;;;;;2097148;28;20048;-61
2022/04/20 06:16:07;;;;;;;6.50;3.38;;;;;;;;;;2097652;28;20131;-61
2022/04/20 06:17:08;;;;;;;5.53;3.47;;;;;;;;;;2097352;28;20051;-61
2022/04/20 06:18:09;;;;;;;4.93;3.30;;;;;;;;;;2097148;28;20127;-61
2022/04/20 06:19:10;;;;;;;6.85;3.90;;;;;;;;;;2090233;28;20055;-61
2022/04/20 06:20:11;;;;;;;5.30;3.10;;;;;;;;;;2088941;28;20500;-61